sensor_id;sensor_type;location;lat;lon;timestamp;P1;durP1;ratioP1;P2;durP2;ratioP2
79005;SDS011;69202;45.498;-73.582;2023-06-24T00:00:33;2.35;;;1.70;;
79005;SDS011;69202;45.498;-73.582;2023-06-24T00:02:59;2.55;;;1.85;;
79005;SDS011;69202;45.498;-73.582;2023-06-24T00:05:27;5.13;;;3.03;;
79005;SDS011;69202;45.498;-73.582;2023-06-24T00:07:54;2.20;;;2.00;;
79005;SDS011;69202;45.498;-73.582;2023-06-24T00:10:22;4.85;;;1.83;;
79005;SDS011;69202;45.498;-73.582;2023-06-24T00:12:48;2.42;;;2.22;;
79005;SDS011;69202;45.498;-73.582;2023-06-24T00:15:14;3.10;;;2.80;;
79005;SDS011;69202;45.498;-73.582;2023-06-24T00:17:40;2.92;;;2.33;;
79005;SDS011;69202;45.498;-73.582;2023-06-24T00:20:07;2.83;;;1.75;;
79005;SDS011;69202;45.498;-73.582;2023-06-24T00:22:35;5.57;;;2.50;;
79005;SDS011;69202;45.498;-73.582;2023-06-24T00:25:09;1.70;;;1.60;;
79005;SDS011;69202;45.498;-73.582;2023-06-24T00:27:35;4.10;;;2.42;;
79005;SDS011;69202;45.498;-73.582;2023-06-24T00:30:01;1.92;;;1.73;;
79005;SDS011;69202;45.498;-73.582;2023-06-24T00:32:27;2.28;;;1.95;;
79005;SDS011;69202;45.498;-73.582;2023-06-24T00:34:52;1.58;;;1.48;;
79005;SDS011;69202;45.498;-73.582;2023-06-24T00:37:21;2.53;;;1.73;;
79005;SDS011;69202;45.498;-73.582;2023-06-24T00:39:46;2.20;;;2.00;;
79005;SDS011;69202;45.498;-73.582;2023-06-24T00:42:15;5.15;;;3.35;;
79005;SDS011;69202;45.498;-73.582;2023-06-24T00:44:41;1.80;;;1.70;;
79005;SDS011;69202;45.498;-73.582;2023-06-24T00:47:07;2.10;;;1.90;;
79005;SDS011;69202;45.498;-73.582;2023-06-24T00:49:33;6.93;;;2.92;;
79005;SDS011;69202;45.498;-73.582;2023-06-24T00:51:59;2.50;;;1.70;;
79005;SDS011;69202;45.498;-73.582;2023-06-24T00:54:26;1.77;;;1.67;;
79005;SDS011;69202;45.498;-73.582;2023-06-24T00:56:56;2.50;;;2.17;;
79005;SDS011;69202;45.498;-73.582;2023-06-24T00:59:25;1.95;;;1.75;;
79005;SDS011;69202;45.498;-73.582;2023-06-24T01:01:56;2.95;;;1.60;;
79005;SDS011;69202;45.498;-73.582;2023-06-24T01:04:22;2.85;;;1.95;;
79005;SDS011;69202;45.498;-73.582;2023-06-24T01:06:50;3.03;;;2.13;;
79005;SDS011;69202;45.498;-73.582;2023-06-24T01:09:16;2.22;;;2.00;;
79005;SDS011;69202;45.498;-73.582;2023-06-24T01:11:42;1.88;;;1.77;;
79005;SDS011;69202;45.498;-73.582;2023-06-24T01:14:08;3.50;;;1.98;;
79005;SDS011;69202;45.498;-73.582;2023-06-24T01:16:51;4.70;;;2.30;;
79005;SDS011;69202;45.498;-73.582;2023-06-24T01:22:37;2.90;;;1.80;;
79005;SDS011;69202;45.498;-73.582;2023-06-24T01:30:22;1.92;;;1.73;;
79005;SDS011;69202;45.498;-73.582;2023-06-24T01:33:04;2.15;;;1.80;;
79005;SDS011;69202;45.498;-73.582;2023-06-24T01:35:35;2.28;;;1.83;;
79005;SDS011;69202;45.498;-73.582;2023-06-24T01:38:05;1.80;;;1.50;;
79005;SDS011;69202;45.498;-73.582;2023-06-24T01:40:39;1.85;;;1.70;;
79005;SDS011;69202;45.498;-73.582;2023-06-24T01:43:09;2.00;;;1.80;;
79005;SDS011;69202;45.498;-73.582;2023-06-24T01:45:41;5.57;;;1.85;;
79005;SDS011;69202;45.498;-73.582;2023-06-24T01:48:11;1.83;;;1.67;;
79005;SDS011;69202;45.498;-73.582;2023-06-24T01:50:42;1.67;;;1.58;;
79005;SDS011;69202;45.498;-73.582;2023-06-24T01:53:19;1.52;;;1.42;;
79005;SDS011;69202;45.498;-73.582;2023-06-24T01:55:46;2.05;;;1.83;;
79005;SDS011;69202;45.498;-73.582;2023-06-24T01:58:15;2.53;;;2.00;;
79005;SDS011;69202;45.498;-73.582;2023-06-24T02:00:43;2.17;;;1.98;;
79005;SDS011;69202;45.498;-73.582;2023-06-24T02:03:09;2.00;;;1.80;;
79005;SDS011;69202;45.498;-73.582;2023-06-24T02:05:36;1.88;;;1.70;;
79005;SDS011;69202;45.498;-73.582;2023-06-24T02:08:10;1.73;;;1.63;;
79005;SDS011;69202;45.498;-73.582;2023-06-24T02:10:39;2.13;;;1.90;;
79005;SDS011;69202;45.498;-73.582;2023-06-24T02:13:07;2.88;;;1.77;;
79005;SDS011;69202;45.498;-73.582;2023-06-24T02:15:34;1.70;;;1.55;;
79005;SDS011;69202;45.498;-73.582;2023-06-24T02:18:03;1.80;;;1.70;;
79005;SDS011;69202;45.498;-73.582;2023-06-24T02:20:30;2.15;;;1.88;;
79005;SDS011;69202;45.498;-73.582;2023-06-24T02:22:57;1.70;;;1.55;;
79005;SDS011;69202;45.498;-73.582;2023-06-24T02:25:24;2.10;;;1.90;;
79005;SDS011;69202;45.498;-73.582;2023-06-24T02:27:52;1.55;;;1.40;;
79005;SDS011;69202;45.498;-73.582;2023-06-24T02:30:20;3.35;;;2.20;;
79005;SDS011;69202;45.498;-73.582;2023-06-24T02:32:47;2.53;;;1.60;;
79005;SDS011;69202;45.498;-73.582;2023-06-24T02:35:13;2.40;;;2.00;;
79005;SDS011;69202;45.498;-73.582;2023-06-24T02:37:39;2.45;;;1.80;;
79005;SDS011;69202;45.498;-73.582;2023-06-24T02:40:08;2.13;;;1.83;;
79005;SDS011;69202;45.498;-73.582;2023-06-24T02:42:35;1.52;;;1.42;;
79005;SDS011;69202;45.498;-73.582;2023-06-24T02:45:02;3.13;;;1.90;;
79005;SDS011;69202;45.498;-73.582;2023-06-24T02:47:29;2.53;;;2.05;;
79005;SDS011;69202;45.498;-73.582;2023-06-24T02:49:55;1.85;;;1.75;;
79005;SDS011;69202;45.498;-73.582;2023-06-24T02:52:23;2.53;;;1.60;;
79005;SDS011;69202;45.498;-73.582;2023-06-24T02:54:54;2.00;;;1.65;;
79005;SDS011;69202;45.498;-73.582;2023-06-24T02:57:24;3.78;;;2.10;;
79005;SDS011;69202;45.498;-73.582;2023-06-24T02:59:51;2.63;;;1.88;;
79005;SDS011;69202;45.498;-73.582;2023-06-24T03:02:17;1.48;;;1.33;;
79005;SDS011;69202;45.498;-73.582;2023-06-24T03:04:43;1.77;;;1.60;;
79005;SDS011;69202;45.498;-73.582;2023-06-24T03:07:10;2.30;;;2.10;;
79005;SDS011;69202;45.498;-73.582;2023-06-24T03:09:36;3.00;;;1.90;;
79005;SDS011;69202;45.498;-73.582;2023-06-24T03:12:03;1.67;;;1.58;;
79005;SDS011;69202;45.498;-73.582;2023-06-24T03:14:30;2.13;;;1.92;;
79005;SDS011;69202;45.498;-73.582;2023-06-24T03:16:56;1.80;;;1.70;;
79005;SDS011;69202;45.498;-73.582;2023-06-24T03:19:22;3.75;;;1.83;;
79005;SDS011;69202;45.498;-73.582;2023-06-24T03:21:51;1.52;;;1.38;;
79005;SDS011;69202;45.498;-73.582;2023-06-24T03:24:17;2.67;;;1.90;;
79005;SDS011;69202;45.498;-73.582;2023-06-24T03:26:43;1.85;;;1.60;;
79005;SDS011;69202;45.498;-73.582;2023-06-24T03:29:09;2.28;;;1.80;;
79005;SDS011;69202;45.498;-73.582;2023-06-24T03:31:37;2.33;;;2.00;;
79005;SDS011;69202;45.498;-73.582;2023-06-24T03:34:03;1.80;;;1.48;;
79005;SDS011;69202;45.498;-73.582;2023-06-24T03:36:29;1.90;;;1.70;;
79005;SDS011;69202;45.498;-73.582;2023-06-24T03:38:55;1.88;;;1.70;;
79005;SDS011;69202;45.498;-73.582;2023-06-24T03:41:20;2.08;;;1.83;;
79005;SDS011;69202;45.498;-73.582;2023-06-24T03:43:46;2.70;;;1.92;;
79005;SDS011;69202;45.498;-73.582;2023-06-24T03:46:12;1.73;;;1.40;;
79005;SDS011;69202;45.498;-73.582;2023-06-24T03:48:38;1.60;;;1.50;;
79005;SDS011;69202;45.498;-73.582;2023-06-24T03:51:05;1.90;;;1.70;;
79005;SDS011;69202;45.498;-73.582;2023-06-24T03:53:31;1.73;;;1.58;;
79005;SDS011;69202;45.498;-73.582;2023-06-24T03:55:58;1.80;;;1.70;;
79005;SDS011;69202;45.498;-73.582;2023-06-24T03:58:24;1.60;;;1.50;;
79005;SDS011;69202;45.498;-73.582;2023-06-24T04:00:50;1.73;;;1.63;;
79005;SDS011;69202;45.498;-73.582;2023-06-24T04:03:16;1.60;;;1.50;;
79005;SDS011;69202;45.498;-73.582;2023-06-24T04:05:45;1.90;;;1.50;;
79005;SDS011;69202;45.498;-73.582;2023-06-24T04:08:11;1.58;;;1.48;;
79005;SDS011;69202;45.498;-73.582;2023-06-24T04:10:37;2.05;;;1.67;;
79005;SDS011;69202;45.498;-73.582;2023-06-24T04:13:03;2.40;;;1.70;;
79005;SDS011;69202;45.498;-73.582;2023-06-24T04:15:29;1.67;;;1.58;;
79005;SDS011;69202;45.498;-73.582;2023-06-24T04:17:57;1.70;;;1.60;;
79005;SDS011;69202;45.498;-73.582;2023-06-24T04:20:23;1.50;;;1.40;;
79005;SDS011;69202;45.498;-73.582;2023-06-24T04:22:49;1.50;;;1.40;;
79005;SDS011;69202;45.498;-73.582;2023-06-24T04:25:15;1.90;;;1.70;;
79005;SDS011;69202;45.498;-73.582;2023-06-24T04:27:41;1.70;;;1.60;;
79005;SDS011;69202;45.498;-73.582;2023-06-24T04:30:07;1.85;;;1.60;;
79005;SDS011;69202;45.498;-73.582;2023-06-24T04:32:33;1.75;;;1.65;;
79005;SDS011;69202;45.498;-73.582;2023-06-24T04:34:59;1.90;;;1.58;;
79005;SDS011;69202;45.498;-73.582;2023-06-24T04:37:26;1.60;;;1.50;;
79005;SDS011;69202;45.498;-73.582;2023-06-24T04:39:52;1.58;;;1.48;;
79005;SDS011;69202;45.498;-73.582;2023-06-24T04:42:17;1.85;;;1.35;;
79005;SDS011;69202;45.498;-73.582;2023-06-24T04:44:43;7.50;;;4.80;;
79005;SDS011;69202;45.498;-73.582;2023-06-24T04:47:09;3.40;;;2.70;;
79005;SDS011;69202;45.498;-73.582;2023-06-24T04:49:35;2.85;;;2.03;;
79005;SDS011;69202;45.498;-73.582;2023-06-24T04:52:02;1.55;;;1.45;;
79005;SDS011;69202;45.498;-73.582;2023-06-24T04:54:28;1.70;;;1.50;;
79005;SDS011;69202;45.498;-73.582;2023-06-24T04:56:54;2.28;;;2.08;;
79005;SDS011;69202;45.498;-73.582;2023-06-24T04:59:21;1.75;;;1.65;;
79005;SDS011;69202;45.498;-73.582;2023-06-24T05:01:47;2.63;;;2.22;;
79005;SDS011;69202;45.498;-73.582;2023-06-24T05:04:13;1.80;;;1.70;;
79005;SDS011;69202;45.498;-73.582;2023-06-24T05:06:39;2.20;;;1.70;;
79005;SDS011;69202;45.498;-73.582;2023-06-24T05:09:04;1.70;;;1.60;;
79005;SDS011;69202;45.498;-73.582;2023-06-24T05:11:30;2.40;;;2.15;;
79005;SDS011;69202;45.498;-73.582;2023-06-24T05:13:56;3.97;;;1.85;;
79005;SDS011;69202;45.498;-73.582;2023-06-24T05:16:23;5.28;;;2.60;;
79005;SDS011;69202;45.498;-73.582;2023-06-24T05:18:49;4.72;;;2.58;;
79005;SDS011;69202;45.498;-73.582;2023-06-24T05:21:15;1.65;;;1.52;;
79005;SDS011;69202;45.498;-73.582;2023-06-24T05:23:41;4.53;;;3.50;;
79005;SDS011;69202;45.498;-73.582;2023-06-24T05:26:07;3.53;;;2.15;;
79005;SDS011;69202;45.498;-73.582;2023-06-24T05:28:33;2.20;;;1.92;;
79005;SDS011;69202;45.498;-73.582;2023-06-24T05:30:59;2.10;;;1.90;;
79005;SDS011;69202;45.498;-73.582;2023-06-24T05:33:25;3.47;;;1.80;;
79005;SDS011;69202;45.498;-73.582;2023-06-24T05:35:51;1.90;;;1.80;;
79005;SDS011;69202;45.498;-73.582;2023-06-24T05:38:18;2.53;;;1.70;;
79005;SDS011;69202;45.498;-73.582;2023-06-24T05:40:44;4.00;;;1.67;;
79005;SDS011;69202;45.498;-73.582;2023-06-24T05:43:10;1.92;;;1.73;;
79005;SDS011;69202;45.498;-73.582;2023-06-24T05:45:36;2.22;;;2.00;;
79005;SDS011;69202;45.498;-73.582;2023-06-24T05:48:02;3.28;;;2.25;;
79005;SDS011;69202;45.498;-73.582;2023-06-24T05:50:28;2.22;;;1.80;;
79005;SDS011;69202;45.498;-73.582;2023-06-24T05:52:54;1.75;;;1.60;;
79005;SDS011;69202;45.498;-73.582;2023-06-24T05:55:20;1.40;;;1.30;;
79005;SDS011;69202;45.498;-73.582;2023-06-24T05:57:46;4.35;;;2.10;;
79005;SDS011;69202;45.498;-73.582;2023-06-24T06:00:12;2.05;;;1.77;;
79005;SDS011;69202;45.498;-73.582;2023-06-24T06:02:38;5.07;;;2.78;;
79005;SDS011;69202;45.498;-73.582;2023-06-24T06:05:04;2.63;;;2.00;;
79005;SDS011;69202;45.498;-73.582;2023-06-24T06:07:30;3.17;;;1.73;;
79005;SDS011;69202;45.498;-73.582;2023-06-24T06:09:58;2.28;;;1.95;;
79005;SDS011;69202;45.498;-73.582;2023-06-24T06:12:24;2.80;;;1.92;;
79005;SDS011;69202;45.498;-73.582;2023-06-24T06:14:50;1.60;;;1.50;;
79005;SDS011;69202;45.498;-73.582;2023-06-24T06:17:15;1.75;;;1.50;;
79005;SDS011;69202;45.498;-73.582;2023-06-24T06:19:41;1.60;;;1.50;;
79005;SDS011;69202;45.498;-73.582;2023-06-24T06:22:10;2.30;;;1.60;;
79005;SDS011;69202;45.498;-73.582;2023-06-24T06:24:36;1.90;;;1.70;;
79005;SDS011;69202;45.498;-73.582;2023-06-24T06:27:02;3.20;;;2.00;;
79005;SDS011;69202;45.498;-73.582;2023-06-24T06:29:28;2.50;;;1.67;;
79005;SDS011;69202;45.498;-73.582;2023-06-24T06:31:54;1.95;;;1.75;;
79005;SDS011;69202;45.498;-73.582;2023-06-24T06:34:21;3.00;;;1.70;;
79005;SDS011;69202;45.498;-73.582;2023-06-24T06:36:47;1.77;;;1.67;;
79005;SDS011;69202;45.498;-73.582;2023-06-24T06:39:13;1.50;;;1.40;;
79005;SDS011;69202;45.498;-73.582;2023-06-24T06:41:39;3.67;;;2.40;;
79005;SDS011;69202;45.498;-73.582;2023-06-24T06:44:05;2.20;;;2.00;;
79005;SDS011;69202;45.498;-73.582;2023-06-24T06:46:31;7.68;;;4.55;;
79005;SDS011;69202;45.498;-73.582;2023-06-24T06:48:57;9.68;;;5.45;;
79005;SDS011;69202;45.498;-73.582;2023-06-24T06:51:23;6.75;;;4.97;;
79005;SDS011;69202;45.498;-73.582;2023-06-24T06:53:50;7.20;;;4.20;;
79005;SDS011;69202;45.498;-73.582;2023-06-24T06:56:16;4.88;;;2.75;;
79005;SDS011;69202;45.498;-73.582;2023-06-24T06:58:49;7.10;;;4.55;;
79005;SDS011;69202;45.498;-73.582;2023-06-24T07:01:15;5.10;;;2.75;;
79005;SDS011;69202;45.498;-73.582;2023-06-24T07:03:42;2.40;;;2.05;;
79005;SDS011;69202;45.498;-73.582;2023-06-24T07:06:09;3.15;;;2.00;;
79005;SDS011;69202;45.498;-73.582;2023-06-24T07:08:34;4.53;;;3.88;;
79005;SDS011;69202;45.498;-73.582;2023-06-24T07:11:01;6.45;;;3.45;;
79005;SDS011;69202;45.498;-73.582;2023-06-24T07:13:28;9.50;;;4.25;;
79005;SDS011;69202;45.498;-73.582;2023-06-24T07:15:54;8.35;;;4.20;;
79005;SDS011;69202;45.498;-73.582;2023-06-24T07:18:20;4.95;;;3.60;;
79005;SDS011;69202;45.498;-73.582;2023-06-24T07:20:46;4.28;;;2.75;;
79005;SDS011;69202;45.498;-73.582;2023-06-24T07:23:11;2.65;;;2.35;;
79005;SDS011;69202;45.498;-73.582;2023-06-24T07:25:37;1.90;;;1.70;;
79005;SDS011;69202;45.498;-73.582;2023-06-24T07:28:03;2.00;;;1.80;;
79005;SDS011;69202;45.498;-73.582;2023-06-24T07:30:29;3.08;;;2.15;;
79005;SDS011;69202;45.498;-73.582;2023-06-24T07:32:55;2.15;;;1.90;;
79005;SDS011;69202;45.498;-73.582;2023-06-24T07:35:21;1.80;;;1.70;;
79005;SDS011;69202;45.498;-73.582;2023-06-24T07:37:47;1.83;;;1.60;;
79005;SDS011;69202;45.498;-73.582;2023-06-24T07:40:13;1.75;;;1.63;;
79005;SDS011;69202;45.498;-73.582;2023-06-24T07:42:40;1.83;;;1.70;;
79005;SDS011;69202;45.498;-73.582;2023-06-24T07:45:07;1.92;;;1.80;;
79005;SDS011;69202;45.498;-73.582;2023-06-24T07:47:33;1.92;;;1.70;;
79005;SDS011;69202;45.498;-73.582;2023-06-24T07:49:59;2.10;;;1.80;;
79005;SDS011;69202;45.498;-73.582;2023-06-24T07:52:25;2.15;;;1.95;;
79005;SDS011;69202;45.498;-73.582;2023-06-24T07:54:51;2.85;;;2.25;;
79005;SDS011;69202;45.498;-73.582;2023-06-24T07:57:17;2.40;;;2.10;;
79005;SDS011;69202;45.498;-73.582;2023-06-24T07:59:43;1.88;;;1.77;;
79005;SDS011;69202;45.498;-73.582;2023-06-24T08:02:09;2.50;;;1.80;;
79005;SDS011;69202;45.498;-73.582;2023-06-24T08:04:34;2.92;;;1.98;;
79005;SDS011;69202;45.498;-73.582;2023-06-24T08:07:02;1.80;;;1.70;;
79005;SDS011;69202;45.498;-73.582;2023-06-24T08:09:30;1.70;;;1.60;;
79005;SDS011;69202;45.498;-73.582;2023-06-24T08:11:56;2.10;;;1.90;;
79005;SDS011;69202;45.498;-73.582;2023-06-24T08:14:22;1.55;;;1.45;;
79005;SDS011;69202;45.498;-73.582;2023-06-24T08:16:48;1.98;;;1.75;;
79005;SDS011;69202;45.498;-73.582;2023-06-24T08:19:14;4.38;;;2.53;;
79005;SDS011;69202;45.498;-73.582;2023-06-24T08:21:40;3.92;;;3.50;;
79005;SDS011;69202;45.498;-73.582;2023-06-24T08:24:06;7.28;;;4.25;;
79005;SDS011;69202;45.498;-73.582;2023-06-24T08:26:32;5.82;;;4.70;;
79005;SDS011;69202;45.498;-73.582;2023-06-24T08:28:58;8.27;;;4.45;;
79005;SDS011;69202;45.498;-73.582;2023-06-24T08:31:25;5.85;;;4.57;;
79005;SDS011;69202;45.498;-73.582;2023-06-24T08:33:54;11.32;;;4.47;;
79005;SDS011;69202;45.498;-73.582;2023-06-24T08:36:27;9.15;;;4.45;;
79005;SDS011;69202;45.498;-73.582;2023-06-24T08:38:55;7.53;;;4.50;;
79005;SDS011;69202;45.498;-73.582;2023-06-24T08:41:22;7.88;;;3.55;;
79005;SDS011;69202;45.498;-73.582;2023-06-24T08:43:50;4.55;;;2.25;;
79005;SDS011;69202;45.498;-73.582;2023-06-24T08:46:16;2.88;;;1.85;;
79005;SDS011;69202;45.498;-73.582;2023-06-24T08:48:44;4.05;;;3.40;;
79005;SDS011;69202;45.498;-73.582;2023-06-24T08:51:11;5.38;;;3.65;;
79005;SDS011;69202;45.498;-73.582;2023-06-24T08:53:41;3.63;;;2.78;;
79005;SDS011;69202;45.498;-73.582;2023-06-24T08:56:11;4.55;;;3.67;;
79005;SDS011;69202;45.498;-73.582;2023-06-24T08:58:40;2.80;;;1.95;;
79005;SDS011;69202;45.498;-73.582;2023-06-24T09:01:06;2.00;;;1.70;;
79005;SDS011;69202;45.498;-73.582;2023-06-24T09:03:32;4.00;;;2.85;;
79005;SDS011;69202;45.498;-73.582;2023-06-24T09:05:58;4.45;;;2.55;;
79005;SDS011;69202;45.498;-73.582;2023-06-24T09:08:24;2.47;;;2.08;;
79005;SDS011;69202;45.498;-73.582;2023-06-24T09:10:53;9.48;;;4.05;;
79005;SDS011;69202;45.498;-73.582;2023-06-24T09:13:20;9.75;;;4.35;;
79005;SDS011;69202;45.498;-73.582;2023-06-24T09:15:48;5.63;;;3.40;;
79005;SDS011;69202;45.498;-73.582;2023-06-24T09:18:14;2.63;;;2.40;;
79005;SDS011;69202;45.498;-73.582;2023-06-24T09:20:42;4.32;;;2.92;;
79005;SDS011;69202;45.498;-73.582;2023-06-24T09:23:10;8.50;;;4.47;;
79005;SDS011;69202;45.498;-73.582;2023-06-24T09:25:36;3.85;;;2.28;;
79005;SDS011;69202;45.498;-73.582;2023-06-24T09:28:02;2.28;;;1.88;;
79005;SDS011;69202;45.498;-73.582;2023-06-24T09:30:29;2.25;;;1.75;;
79005;SDS011;69202;45.498;-73.582;2023-06-24T09:32:55;2.28;;;2.05;;
79005;SDS011;69202;45.498;-73.582;2023-06-24T09:35:21;2.05;;;1.90;;
79005;SDS011;69202;45.498;-73.582;2023-06-24T09:37:49;3.53;;;2.38;;
79005;SDS011;69202;45.498;-73.582;2023-06-24T09:40:19;2.47;;;2.22;;
79005;SDS011;69202;45.498;-73.582;2023-06-24T09:42:52;9.82;;;4.70;;
79005;SDS011;69202;45.498;-73.582;2023-06-24T09:47:55;2.17;;;1.85;;
79005;SDS011;69202;45.498;-73.582;2023-06-24T09:50:23;2.88;;;2.47;;
79005;SDS011;69202;45.498;-73.582;2023-06-24T09:52:49;5.57;;;3.80;;
79005;SDS011;69202;45.498;-73.582;2023-06-24T09:55:17;3.45;;;2.50;;
79005;SDS011;69202;45.498;-73.582;2023-06-24T09:57:47;5.43;;;3.97;;
79005;SDS011;69202;45.498;-73.582;2023-06-24T10:00:18;4.93;;;4.03;;
79005;SDS011;69202;45.498;-73.582;2023-06-24T10:02:45;8.23;;;4.50;;
79005;SDS011;69202;45.498;-73.582;2023-06-24T10:05:12;2.83;;;2.63;;
79005;SDS011;69202;45.498;-73.582;2023-06-24T10:07:39;6.47;;;4.15;;
79005;SDS011;69202;45.498;-73.582;2023-06-24T10:10:06;9.93;;;4.82;;
79005;SDS011;69202;45.498;-73.582;2023-06-24T10:12:36;6.07;;;4.28;;
79005;SDS011;69202;45.498;-73.582;2023-06-24T10:15:02;8.35;;;5.05;;
79005;SDS011;69202;45.498;-73.582;2023-06-24T10:17:30;8.20;;;4.97;;
79005;SDS011;69202;45.498;-73.582;2023-06-24T10:19:56;6.72;;;3.67;;
79005;SDS011;69202;45.498;-73.582;2023-06-24T10:22:22;8.23;;;4.22;;
79005;SDS011;69202;45.498;-73.582;2023-06-24T10:24:53;9.27;;;4.53;;
79005;SDS011;69202;45.498;-73.582;2023-06-24T10:27:22;5.35;;;4.22;;
79005;SDS011;69202;45.498;-73.582;2023-06-24T10:29:49;6.57;;;5.10;;
79005;SDS011;69202;45.498;-73.582;2023-06-24T10:32:21;5.38;;;4.10;;
79005;SDS011;69202;45.498;-73.582;2023-06-24T10:34:57;5.03;;;4.30;;
79005;SDS011;69202;45.498;-73.582;2023-06-24T10:37:23;5.13;;;3.22;;
79005;SDS011;69202;45.498;-73.582;2023-06-24T10:44:59;6.50;;;5.00;;
79005;SDS011;69202;45.498;-73.582;2023-06-24T10:47:34;5.85;;;4.45;;
79005;SDS011;69202;45.498;-73.582;2023-06-24T10:50:04;5.97;;;4.82;;
79005;SDS011;69202;45.498;-73.582;2023-06-24T10:52:31;7.78;;;4.70;;
79005;SDS011;69202;45.498;-73.582;2023-06-24T10:54:58;6.50;;;4.63;;
79005;SDS011;69202;45.498;-73.582;2023-06-24T10:57:25;8.65;;;4.30;;
79005;SDS011;69202;45.498;-73.582;2023-06-24T10:59:53;6.63;;;4.68;;
79005;SDS011;69202;45.498;-73.582;2023-06-24T11:02:21;7.82;;;3.92;;
79005;SDS011;69202;45.498;-73.582;2023-06-24T11:04:49;6.90;;;4.53;;
79005;SDS011;69202;45.498;-73.582;2023-06-24T11:07:18;5.50;;;4.28;;
79005;SDS011;69202;45.498;-73.582;2023-06-24T11:09:52;2.38;;;2.13;;
79005;SDS011;69202;45.498;-73.582;2023-06-24T11:12:19;5.15;;;4.63;;
79005;SDS011;69202;45.498;-73.582;2023-06-24T11:14:49;6.15;;;4.18;;
79005;SDS011;69202;45.498;-73.582;2023-06-24T11:17:15;6.70;;;4.30;;
79005;SDS011;69202;45.498;-73.582;2023-06-24T11:19:41;4.35;;;3.47;;
79005;SDS011;69202;45.498;-73.582;2023-06-24T11:22:09;2.33;;;1.80;;
79005;SDS011;69202;45.498;-73.582;2023-06-24T11:24:35;2.30;;;2.00;;
79005;SDS011;69202;45.498;-73.582;2023-06-24T11:27:01;5.13;;;3.58;;
79005;SDS011;69202;45.498;-73.582;2023-06-24T11:29:29;6.03;;;4.35;;
79005;SDS011;69202;45.498;-73.582;2023-06-24T11:31:59;3.13;;;2.33;;
79005;SDS011;69202;45.498;-73.582;2023-06-24T11:34:25;2.00;;;1.65;;
79005;SDS011;69202;45.498;-73.582;2023-06-24T11:36:52;7.60;;;4.00;;
79005;SDS011;69202;45.498;-73.582;2023-06-24T11:39:21;2.70;;;2.50;;
79005;SDS011;69202;45.498;-73.582;2023-06-24T11:41:49;3.92;;;2.80;;
79005;SDS011;69202;45.498;-73.582;2023-06-24T11:44:16;2.95;;;2.65;;
79005;SDS011;69202;45.498;-73.582;2023-06-24T11:46:46;2.53;;;2.33;;
79005;SDS011;69202;45.498;-73.582;2023-06-24T11:49:12;8.45;;;4.70;;
79005;SDS011;69202;45.498;-73.582;2023-06-24T11:51:45;5.03;;;3.60;;
79005;SDS011;69202;45.498;-73.582;2023-06-24T11:54:24;10.45;;;4.50;;
79005;SDS011;69202;45.498;-73.582;2023-06-24T11:56:50;6.20;;;4.35;;
79005;SDS011;69202;45.498;-73.582;2023-06-24T11:59:21;5.68;;;3.08;;
79005;SDS011;69202;45.498;-73.582;2023-06-24T12:01:52;4.32;;;2.75;;
79005;SDS011;69202;45.498;-73.582;2023-06-24T12:04:20;8.50;;;5.82;;
79005;SDS011;69202;45.498;-73.582;2023-06-24T12:06:47;10.73;;;5.75;;
79005;SDS011;69202;45.498;-73.582;2023-06-24T12:09:12;3.10;;;2.67;;
79005;SDS011;69202;45.498;-73.582;2023-06-24T12:11:38;6.35;;;5.03;;
79005;SDS011;69202;45.498;-73.582;2023-06-24T12:14:05;7.57;;;5.82;;
79005;SDS011;69202;45.498;-73.582;2023-06-24T12:16:31;3.78;;;3.10;;
79005;SDS011;69202;45.498;-73.582;2023-06-24T12:18:57;4.05;;;3.00;;
79005;SDS011;69202;45.498;-73.582;2023-06-24T12:21:23;6.25;;;4.85;;
79005;SDS011;69202;45.498;-73.582;2023-06-24T12:23:49;8.02;;;4.32;;
79005;SDS011;69202;45.498;-73.582;2023-06-24T12:26:15;6.93;;;4.70;;
79005;SDS011;69202;45.498;-73.582;2023-06-24T12:28:41;6.20;;;3.65;;
79005;SDS011;69202;45.498;-73.582;2023-06-24T12:31:07;3.92;;;2.22;;
79005;SDS011;69202;45.498;-73.582;2023-06-24T12:33:32;7.75;;;5.85;;
79005;SDS011;69202;45.498;-73.582;2023-06-24T12:35:58;4.20;;;3.10;;
79005;SDS011;69202;45.498;-73.582;2023-06-24T12:38:24;11.60;;;5.85;;
79005;SDS011;69202;45.498;-73.582;2023-06-24T12:40:53;6.28;;;4.53;;
79005;SDS011;69202;45.498;-73.582;2023-06-24T12:43:19;4.35;;;2.40;;
79005;SDS011;69202;45.498;-73.582;2023-06-24T12:45:45;2.85;;;2.20;;
79005;SDS011;69202;45.498;-73.582;2023-06-24T12:48:12;6.70;;;4.72;;
79005;SDS011;69202;45.498;-73.582;2023-06-24T12:50:38;6.68;;;5.35;;
79005;SDS011;69202;45.498;-73.582;2023-06-24T12:53:05;2.30;;;2.10;;
79005;SDS011;69202;45.498;-73.582;2023-06-24T12:55:31;3.40;;;2.00;;
79005;SDS011;69202;45.498;-73.582;2023-06-24T12:57:57;2.97;;;2.60;;
79005;SDS011;69202;45.498;-73.582;2023-06-24T13:00:23;7.55;;;3.83;;
79005;SDS011;69202;45.498;-73.582;2023-06-24T13:02:50;9.70;;;5.80;;
79005;SDS011;69202;45.498;-73.582;2023-06-24T13:05:16;4.28;;;2.78;;
79005;SDS011;69202;45.498;-73.582;2023-06-24T13:07:44;5.32;;;2.10;;
79005;SDS011;69202;45.498;-73.582;2023-06-24T13:10:10;11.98;;;6.25;;
79005;SDS011;69202;45.498;-73.582;2023-06-24T13:12:36;12.02;;;8.25;;
79005;SDS011;69202;45.498;-73.582;2023-06-24T13:15:06;13.85;;;9.80;;
79005;SDS011;69202;45.498;-73.582;2023-06-24T13:17:34;11.02;;;7.47;;
79005;SDS011;69202;45.498;-73.582;2023-06-24T13:20:00;16.27;;;8.80;;
79005;SDS011;69202;45.498;-73.582;2023-06-24T13:22:29;16.42;;;7.50;;
79005;SDS011;69202;45.498;-73.582;2023-06-24T13:24:56;24.33;;;18.92;;
79005;SDS011;69202;45.498;-73.582;2023-06-24T13:27:22;11.05;;;8.25;;
79005;SDS011;69202;45.498;-73.582;2023-06-24T13:29:48;14.30;;;7.30;;
79005;SDS011;69202;45.498;-73.582;2023-06-24T13:32:14;9.23;;;7.20;;
79005;SDS011;69202;45.498;-73.582;2023-06-24T13:34:40;12.07;;;8.50;;
79005;SDS011;69202;45.498;-73.582;2023-06-24T13:37:06;10.27;;;8.52;;
79005;SDS011;69202;45.498;-73.582;2023-06-24T13:39:32;12.43;;;9.60;;
79005;SDS011;69202;45.498;-73.582;2023-06-24T13:42:07;23.77;;;18.58;;
79005;SDS011;69202;45.498;-73.582;2023-06-24T13:44:42;24.25;;;19.80;;
79005;SDS011;69202;45.498;-73.582;2023-06-24T13:47:09;20.30;;;13.75;;
79005;SDS011;69202;45.498;-73.582;2023-06-24T13:49:35;10.20;;;8.02;;
79005;SDS011;69202;45.498;-73.582;2023-06-24T13:52:03;16.55;;;13.30;;
79005;SDS011;69202;45.498;-73.582;2023-06-24T13:54:29;16.00;;;12.23;;
79005;SDS011;69202;45.498;-73.582;2023-06-24T13:56:58;18.38;;;14.45;;
79005;SDS011;69202;45.498;-73.582;2023-06-24T13:59:24;15.57;;;13.18;;
79005;SDS011;69202;45.498;-73.582;2023-06-24T14:01:50;17.67;;;15.23;;
79005;SDS011;69202;45.498;-73.582;2023-06-24T14:04:16;15.07;;;11.55;;
79005;SDS011;69202;45.498;-73.582;2023-06-24T14:06:42;8.40;;;6.05;;
79005;SDS011;69202;45.498;-73.582;2023-06-24T14:09:08;12.52;;;6.95;;
79005;SDS011;69202;45.498;-73.582;2023-06-24T14:11:34;16.02;;;12.20;;
79005;SDS011;69202;45.498;-73.582;2023-06-24T14:14:02;18.40;;;8.38;;
79005;SDS011;69202;45.498;-73.582;2023-06-24T14:16:28;12.55;;;9.38;;
79005;SDS011;69202;45.498;-73.582;2023-06-24T14:18:54;13.65;;;9.70;;
79005;SDS011;69202;45.498;-73.582;2023-06-24T14:21:20;13.65;;;9.98;;
79005;SDS011;69202;45.498;-73.582;2023-06-24T14:23:46;11.32;;;8.38;;
79005;SDS011;69202;45.498;-73.582;2023-06-24T14:26:12;13.65;;;8.13;;
79005;SDS011;69202;45.498;-73.582;2023-06-24T14:28:38;13.63;;;9.68;;
79005;SDS011;69202;45.498;-73.582;2023-06-24T14:31:03;10.00;;;6.70;;
79005;SDS011;69202;45.498;-73.582;2023-06-24T14:33:29;11.52;;;7.50;;
79005;SDS011;69202;45.498;-73.582;2023-06-24T14:35:57;11.52;;;9.05;;